Time;durP1;ratioP1;P1;durP2;ratioP2;P2;SDS_P1;SDS_P2;PMS_P1;PMS_P2;Temp;Humidity;BMP_temperature;BMP_pressure;BME280_temperature;BME280_humidity;BME280_pressure;Samples;Min_cycle;Max_cycle;Signal;HPM_P1;HPM_P2
2023/01/30 00:01:18;;;;;;;1999.90;999.90;;;;;;;-2.68;100.00;95409.06;5067706;28;20169;-63
2023/01/30 00:03:44;;;;;;;1999.90;999.90;;;;;;;-2.73;100.00;95411.13;5066640;28;20249;-62
2023/01/30 00:06:10;;;;;;;1999.90;999.90;;;;;;;-2.76;100.00;95401.84;5066942;28;20173;-63
2023/01/30 00:08:35;;;;;;;1999.90;999.90;;;;;;;-2.75;100.00;95398.06;5066678;28;20174;-63
2023/01/30 00:11:05;;;;;;;1999.90;999.90;;;;;;;-2.78;100.00;95387.22;5067060;28;20170;-63
2023/01/30 00:13:32;;;;;;;1999.90;999.90;;;;;;;-2.81;100.00;95387.88;5067170;28;20212;-63
2023/01/30 00:15:57;;;;;;;1999.90;999.90;;;;;;;-2.84;100.00;95383.94;5066618;28;20177;-63
2023/01/30 00:18:23;;;;;;;1999.90;999.90;;;;;;;-2.83;100.00;95368.72;5066548;28;20198;-63
2023/01/30 00:20:54;;;;;;;1999.90;999.90;;;;;;;-2.86;100.00;95366.69;5066433;28;20190;-64
2023/01/30 00:23:19;;;;;;;1999.90;999.90;;;;;;;-2.90;100.00;95352.41;5066814;28;20172;-64
2023/01/30 00:25:45;;;;;;;1999.90;999.90;;;;;;;-2.93;100.00;95358.38;5066722;28;20245;-63
2023/01/30 00:28:10;;;;;;;1999.90;999.90;;;;;;;-2.95;100.00;95352.59;5066919;28;20176;-62
2023/01/30 00:30:36;;;;;;;1999.90;999.90;;;;;;;-2.95;100.00;95349.91;5067022;28;20254;-62
2023/01/30 00:33:01;;;;;;;1999.90;999.90;;;;;;;-2.99;100.00;95359.66;5066671;28;20169;-62
2023/01/30 00:35:29;;;;;;;1999.90;999.90;;;;;;;-3.00;100.00;95348.19;5066200;28;20173;-62
2023/01/30 00:37:56;;;;;;;1999.90;999.90;;;;;;;-3.02;100.00;95338.94;5066712;28;20203;-63
2023/01/30 00:40:23;;;;;;;1999.90;999.90;;;;;;;-3.03;100.00;95332.81;5066142;28;20170;-63
2023/01/30 00:48:16;;;;;;;1999.90;999.90;;;;;;;-3.11;100.00;95314.94;5066679;28;20516;-65
2023/01/30 00:50:41;;;;;;;1999.90;999.90;;;;;;;-3.12;100.00;95307.22;5066307;28;20162;-62
2023/01/30 00:53:12;;;;;;;1999.90;999.90;;;;;;;-3.13;100.00;95300.34;5066145;28;20168;-63
2023/01/30 00:55:37;;;;;;;1999.90;999.90;;;;;;;-3.16;100.00;95299.09;5066039;28;20180;-63
2023/01/30 00:58:03;;;;;;;1999.90;999.90;;;;;;;-3.17;100.00;95288.72;5065624;28;20233;-62
2023/01/30 01:00:28;;;;;;;1999.90;999.90;;;;;;;-3.22;100.00;95284.34;5065837;28;20162;-62
2023/01/30 01:02:54;;;;;;;1999.90;999.90;;;;;;;-3.25;100.00;95281.53;5065828;28;20181;-62
2023/01/30 01:05:19;;;;;;;1999.90;999.90;;;;;;;-3.29;100.00;95275.28;5065614;28;20169;-63
2023/01/30 01:07:44;;;;;;;1999.90;999.90;;;;;;;-3.34;100.00;95272.75;5065674;28;20162;-62
2023/01/30 01:10:15;;;;;;;1999.90;999.90;;;;;;;-3.37;100.00;95271.50;5065568;28;20260;-63
2023/01/30 01:12:45;;;;;;;1999.90;999.90;;;;;;;-3.45;100.00;95267.75;5066362;28;20158;-62
2023/01/30 01:15:11;;;;;;;1999.90;999.90;;;;;;;-3.49;100.00;95261.50;5065448;28;20188;-62
2023/01/30 01:17:38;;;;;;;1999.90;999.90;;;;;;;-3.53;100.00;95249.88;5065336;28;20276;-62
2023/01/30 01:20:04;;;;;;;1999.90;999.90;;;;;;;-3.51;100.00;95234.38;5065274;28;20189;-63
2023/01/30 01:22:29;;;;;;;1999.90;999.90;;;;;;;-3.53;100.00;95238.47;5065278;28;20166;-63
2023/01/30 01:24:55;;;;;;;1999.90;999.90;;;;;;;-3.53;100.00;95239.22;5065318;28;20208;-62
2023/01/30 01:27:20;;;;;;;1999.90;999.90;;;;;;;-3.55;100.00;95233.44;5065288;28;20487;-63
2023/01/30 01:29:46;;;;;;;1999.90;999.90;;;;;;;-3.61;100.00;95232.03;5065132;28;20234;-63
2023/01/30 01:32:11;;;;;;;1999.90;999.90;;;;;;;-3.61;100.00;95232.03;5065338;28;20185;-62
2023/01/30 01:34:36;;;;;;;1999.90;999.90;;;;;;;-3.63;100.00;95231.59;5065593;28;20177;-62
2023/01/30 01:37:02;;;;;;;1999.90;999.90;;;;;;;-3.64;100.00;95232.66;5065535;28;20264;-63
2023/01/30 01:41:00;;;;;;;1999.90;999.90;;;;;;;-3.69;100.00;95224.84;5065019;28;20162;-64
2023/01/30 01:42:12;;;;;;;1999.90;999.90;;;;;;;-3.71;100.00;95227.03;5065788;28;20182;-63
2023/01/30 01:45:14;;;;;;;1999.90;999.90;;;;;;;-3.73;100.00;95223.91;5064904;28;20166;-63
2023/01/30 01:47:45;;;;;;;1999.90;999.90;;;;;;;-3.75;100.00;95220.75;5065437;28;20164;-63
2023/01/30 01:50:21;;;;;;;1999.90;999.90;;;;;;;-3.78;100.00;95216.06;5065406;28;20185;-63
2023/01/30 01:52:50;;;;;;;1999.90;999.90;;;;;;;-3.80;100.00;95201.47;5065374;28;20161;-63
2023/01/30 01:55:16;;;;;;;1999.90;999.90;;;;;;;-3.81;100.00;95195.38;5064719;28;20162;-62
2023/01/30 01:57:52;;;;;;;1999.90;999.90;;;;;;;-3.82;100.00;95183.13;5064340;28;20228;-63
2023/01/30 02:00:20;;;;;;;1999.90;999.90;;;;;;;-3.82;100.00;95183.13;5065152;28;20185;-65
2023/01/30 02:02:56;;;;;;;1999.90;999.90;;;;;;;-3.86;100.00;95182.19;5064107;28;20169;-63
2023/01/30 02:05:24;;;;;;;1999.90;999.90;;;;;;;-3.86;100.00;95187.53;5065368;28;20337;-64
2023/01/30 02:08:10;;;;;;;1999.90;999.90;;;;;;;-3.84;100.00;95185.34;5064830;28;20166;-64
2023/01/30 02:10:42;;;;;;;1999.90;999.90;;;;;;;-3.82;100.00;95182.38;5064643;28;20210;-64
2023/01/30 02:13:07;;;;;;;1999.90;999.90;;;;;;;-3.87;100.00;95183.31;5065074;28;20162;-64
2023/01/30 02:15:34;;;;;;;1999.90;999.90;;;;;;;-3.89;100.00;95182.84;5064867;28;20241;-64
2023/01/30 02:17:59;;;;;;;1999.90;999.90;;;;;;;-3.90;100.00;95191.16;5064294;28;20196;-64
2023/01/30 02:20:54;;;;;;;1999.90;999.90;;;;;;;-3.91;100.00;95194.91;5064190;28;20186;-64
2023/01/30 02:23:48;;;;;;;1999.90;999.90;;;;;;;-3.97;100.00;95202.28;5062916;28;20201;-65
2023/01/30 02:26:31;;;;;;;1999.90;999.90;;;;;;;-4.02;100.00;95183.81;5065024;28;20212;-64
2023/01/30 02:29:18;;;;;;;1999.90;999.90;;;;;;;-3.99;100.00;95177.84;5064459;28;20162;-64
2023/01/30 02:31:53;;;;;;;1999.90;999.90;;;;;;;-3.95;100.00;95183.31;5064676;28;20170;-64
2023/01/30 02:34:27;;;;;;;1999.90;999.90;;;;;;;-3.93;100.00;95171.25;5064621;28;20525;-64
2023/01/30 02:37:24;;;;;;;1999.90;999.90;;;;;;;-3.95;100.00;95162.00;5064063;28;20193;-64
2023/01/30 02:40:01;;;;;;;1999.90;999.90;;;;;;;-3.99;100.00;95155.75;5064815;28;20170;-64
2023/01/30 02:42:37;;;;;;;1999.90;999.90;;;;;;;-4.00;100.00;95160.28;5064518;28;20166;-64
2023/01/30 02:45:16;;;;;;;1999.90;999.90;;;;;;;-3.99;100.00;95151.19;5064240;28;20169;-62
2023/01/30 02:48:01;;;;;;;1999.90;999.90;;;;;;;-3.98;100.00;95171.41;5064448;28;20220;-62
2023/01/30 02:50:39;;;;;;;1999.90;999.90;;;;;;;-3.97;100.00;95164.22;5064401;28;20189;-62
2023/01/30 02:53:05;;;;;;;1999.90;999.90;;;;;;;-4.03;100.00;95166.25;5064364;28;20166;-62
2023/01/30 02:55:31;;;;;;;1999.90;999.90;;;;;;;-4.02;100.00;95167.81;5064154;28;20166;-62
2023/01/30 02:57:57;;;;;;;1999.90;999.90;;;;;;;-4.00;100.00;95165.59;5064096;28;20225;-62
2023/01/30 03:01:06;;;;;;;1999.90;999.90;;;;;;;-3.92;100.00;95151.50;5063768;28;20198;-63
2023/01/30 03:04:09;;;;;;;1999.90;999.90;;;;;;;-3.82;100.00;95156.47;5056664;28;20182;-63
2023/01/30 03:07:17;;;;;;;1999.90;999.90;;;;;;;-3.77;100.00;95158.97;5062744;28;20196;-63
2023/01/30 03:09:56;;;;;;;1999.90;999.90;;;;;;;-3.71;100.00;95157.69;5064165;28;20162;-61
2023/01/30 03:12:43;;;;;;;1999.90;999.90;;;;;;;-3.66;100.00;95151.41;5064087;28;20165;-61
2023/01/30 03:15:16;;;;;;;1999.90;999.90;;;;;;;-3.63;100.00;95148.91;5067984;28;20162;-61
2023/01/30 03:17:45;;;;;;;1999.90;999.90;;;;;;;-3.61;100.00;95154.69;5068221;28;20198;-63
2023/01/30 03:20:13;;;;;;;1999.90;999.90;;;;;;;-3.56;100.00;95148.38;5067668;28;20189;-61
2023/01/30 03:22:38;;;;;;;1999.90;999.90;;;;;;;-3.57;100.00;95128.16;5067690;28;20177;-63
2023/01/30 03:25:04;;;;;;;1999.90;999.90;;;;;;;-3.54;100.00;95124.84;5067720;28;20166;-64
2023/01/30 03:27:31;;;;;;;1999.90;999.90;;;;;;;-3.48;100.00;95126.22;5067464;28;20205;-62
2023/01/30 03:29:56;;;;;;;1999.90;999.90;;;;;;;-3.47;100.00;95113.69;5067420;28;20170;-61
2023/01/30 03:32:22;;;;;;;1999.90;999.90;;;;;;;-3.47;100.00;95112.56;5068197;28;20172;-62
2023/01/30 03:34:47;;;;;;;1999.90;999.90;;;;;;;-3.49;100.00;95116.66;5067959;28;20350;-61
2023/01/30 03:37:12;;;;;;;1999.90;999.90;;;;;;;-3.49;100.00;95127.34;5067223;28;20228;-61
2023/01/30 03:39:38;;;;;;;1999.90;999.90;;;;;;;-3.52;100.00;95133.31;5067310;28;20170;-61
2023/01/30 03:42:03;;;;;;;1999.90;999.90;;;;;;;-3.53;100.00;95140.53;5067090;28;20173;-61
2023/01/30 03:44:28;;;;;;;1999.90;999.90;;;;;;;-3.55;100.00;95131.28;5067287;28;20166;-61
2023/01/30 03:46:54;;;;;;;1999.90;999.90;;;;;;;-3.59;100.00;95133.81;5067745;28;20170;-61
2023/01/30 03:49:20;;;;;;;1999.90;999.90;;;;;;;-3.60;100.00;95148.22;5067120;28;20220;-62
2023/01/30 03:51:45;;;;;;;1999.90;999.90;;;;;;;-3.58;100.00;95151.38;5067120;28;20170;-62
2023/01/30 03:54:11;;;;;;;1999.90;999.90;;;;;;;-3.58;100.00;95151.38;5067073;28;20200;-62
2023/01/30 03:56:36;;;;;;;1999.90;999.90;;;;;;;-3.59;100.00;95160.50;5067114;28;20212;-62
2023/01/30 03:59:01;;;;;;;1999.90;999.90;;;;;;;-3.55;100.00;95156.06;5067184;28;20166;-61
2023/01/30 04:01:27;;;;;;;1999.90;999.90;;;;;;;-3.53;100.00;95153.84;5066628;28;20193;-61
2023/01/30 04:03:52;;;;;;;1999.90;999.90;;;;;;;-3.51;100.00;95165.00;5066958;28;20166;-61
2023/01/30 04:06:18;;;;;;;1999.90;999.90;;;;;;;-3.45;100.00;95161.03;5067388;28;20166;-61
2023/01/30 04:08:43;;;;;;;1999.90;999.90;;;;;;;-3.40;100.00;95151.31;5066994;28;20174;-61
2023/01/30 04:11:08;;;;;;;1999.90;999.90;;;;;;;-3.31;100.00;95160.84;5066846;28;20173;-61
2023/01/30 04:13:34;;;;;;;1999.90;999.90;;;;;;;-3.24;100.00;95165.66;5066834;28;20478;-61
2023/01/30 04:16:16;;;;;;;1999.90;999.90;;;;;;;-3.11;100.00;95173.44;5067188;28;20176;-61
2023/01/30 04:18:41;;;;;;;1999.90;999.90;;;;;;;-3.03;100.00;95199.31;5066472;28;20202;-62
2023/01/30 04:21:07;;;;;;;1999.90;999.90;;;;;;;-2.97;100.00;95198.03;5066565;28;20232;-61
2023/01/30 04:23:32;;;;;;;1999.90;999.90;;;;;;;-2.91;100.00;95202.09;5066444;28;20170;-61
2023/01/30 04:25:57;;;;;;;1999.90;999.90;;;;;;;-2.87;100.00;95202.22;5065717;28;20177;-62
2023/01/30 04:28:23;;;;;;;1999.90;999.90;;;;;;;-2.80;100.00;95207.84;5066322;28;20174;-62
2023/01/30 04:30:48;;;;;;;1999.90;999.90;;;;;;;-2.75;100.00;95208.44;5066357;28;20166;-62
2023/01/30 04:33:13;;;;;;;1999.90;999.90;;;;;;;-2.71;100.00;95212.00;5066648;28;20245;-62
2023/01/30 04:35:39;;;;;;;1999.90;999.90;;;;;;;-2.62;100.00;95230.66;5066772;28;20158;-62
2023/01/30 04:38:04;;;;;;;1999.90;999.90;;;;;;;-2.54;100.00;95227.16;5066348;28;20212;-62
2023/01/30 04:40:29;;;;;;;1999.90;999.90;;;;;;;-2.46;100.00;95245.00;5066180;28;20162;-63
2023/01/30 04:42:55;;;;;;;1999.90;999.90;;;;;;;-2.41;100.00;95248.28;5066236;28;20241;-64
2023/01/30 04:45:20;;;;;;;1999.90;999.90;;;;;;;-2.34;100.00;95279.84;5066080;28;20169;-65
2023/01/30 04:47:45;;;;;;;1999.90;999.90;;;;;;;-2.30;100.00;95280.78;5066114;28;20166;-64
2023/01/30 04:50:11;;;;;;;1999.90;999.90;;;;;;;-2.32;100.00;95285.66;5066050;28;20281;-65
2023/01/30 04:52:36;;;;;;;1999.90;999.90;;;;;;;-2.32;100.00;95280.28;5065966;28;20169;-65
2023/01/30 04:55:02;;;;;;;1999.90;999.90;;;;;;;-2.31;100.00;95279.97;5065955;28;20166;-65
2023/01/30 04:57:27;;;;;;;1999.90;999.90;;;;;;;-2.33;100.00;95284.09;5065754;28;20256;-65
2023/01/30 04:59:52;;;;;;;1999.90;999.90;;;;;;;-2.31;100.00;95300.56;5066016;28;20245;-64
2023/01/30 05:02:18;;;;;;;1999.90;999.90;;;;;;;-2.28;100.00;95313.28;5065818;28;20355;-64
2023/01/30 05:04:43;;;;;;;1999.90;999.90;;;;;;;-2.32;100.00;95320.38;5065745;28;20170;-65
2023/01/30 05:07:09;;;;;;;1999.90;999.90;;;;;;;-2.37;100.00;95316.00;5065788;28;20169;-66
2023/01/30 05:09:34;;;;;;;1999.90;999.90;;;;;;;-2.36;100.00;95330.16;5065668;28;20170;-65
2023/01/30 05:12:00;;;;;;;1999.90;999.90;;;;;;;-2.38;100.00;95341.19;5065594;28;20201;-66
2023/01/30 05:14:25;;;;;;;1999.90;999.90;;;;;;;-2.39;100.00;95349.50;5065501;28;20174;-66
2023/01/30 05:16:50;;;;;;;1999.90;999.90;;;;;;;-2.41;100.00;95338.38;5065446;28;20167;-66
2023/01/30 05:19:16;;;;;;;1999.90;999.90;;;;;;;-2.44;100.00;95329.09;5065461;28;20190;-65
2023/01/30 05:21:41;;;;;;;1999.90;999.90;;;;;;;-2.46;100.00;95303.81;5065405;28;20178;-66
2023/01/30 05:24:07;;;;;;;1999.90;999.90;;;;;;;-2.50;100.00;95297.53;5065892;28;20197;-65
2023/01/30 05:26:33;;;;;;;1999.90;999.90;;;;;;;-2.43;100.00;95313.84;5065293;28;20205;-63
2023/01/30 05:28:58;;;;;;;1999.90;999.90;;;;;;;-2.47;100.00;95307.59;5065817;28;20174;-64
2023/01/30 05:31:24;;;;;;;1999.90;999.90;;;;;;;-2.48;100.00;95317.47;5065716;28;20162;-64
2023/01/30 05:33:51;;;;;;;1999.90;999.90;;;;;;;-2.47;100.00;95319.06;5064817;28;20169;-64
2023/01/30 05:36:18;;;;;;;1999.90;999.90;;;;;;;-2.51;100.00;95322.69;5065256;28;20166;-64
2023/01/30 05:38:44;;;;;;;1999.90;999.90;;;;;;;-2.47;100.00;95326.28;5064703;28;20243;-64
2023/01/30 05:41:12;;;;;;;1999.90;999.90;;;;;;;-2.45;100.00;95326.78;5065005;28;20253;-64
2023/01/30 05:43:37;;;;;;;1999.90;999.90;;;;;;;-2.40;100.00;95321.22;5065315;28;20240;-64
2023/01/30 05:46:04;;;;;;;1999.90;999.90;;;;;;;-2.41;100.00;95311.66;5064886;28;20245;-64
2023/01/30 05:48:31;;;;;;;1999.90;999.90;;;;;;;-2.39;100.00;95314.78;5064862;28;20162;-64
2023/01/30 05:50:58;;;;;;;1999.90;999.90;;;;;;;-2.40;100.00;95313.22;5064836;28;20165;-64
2023/01/30 05:53:26;;;;;;;1999.90;999.90;;;;;;;-2.38;100.00;95311.78;5065194;28;20162;-65
2023/01/30 05:56:00;;;;;;;1999.90;999.90;;;;;;;-2.35;100.00;95327.16;5065012;28;20170;-64
2023/01/30 05:58:26;;;;;;;1999.90;999.90;;;;;;;-2.34;100.00;95322.63;5064448;28;20224;-65
2023/01/30 06:00:52;;;;;;;1999.90;999.90;;;;;;;-2.32;100.00;95331.09;5064674;28;20174;-64
2023/01/30 06:03:18;;;;;;;1999.90;999.90;;;;;;;-2.29;100.00;95320.53;5064494;28;20195;-64
2023/01/30 06:05:43;;;;;;;1999.90;999.90;;;;;;;-2.27;100.00;95322.88;5064410;28;20170;-64
2023/01/30 06:08:09;;;;;;;1999.90;999.90;;;;;;;-2.26;100.00;95346.59;5064973;28;20179;-64
2023/01/30 06:10:35;;;;;;;1999.90;999.90;;;;;;;-2.26;100.00;95341.25;5064363;28;20178;-64
2023/01/30 06:13:01;;;;;;;1999.90;999.90;;;;;;;-2.21;100.00;95338.41;5064778;28;20181;-64
2023/01/30 06:15:26;;;;;;;1999.90;999.90;;;;;;;-2.17;100.00;95333.19;5064264;28;20170;-64
2023/01/30 06:17:51;;;;;;;1999.90;999.90;;;;;;;-2.12;100.00;95347.16;5064604;28;20209;-64
2023/01/30 06:20:17;;;;;;;1999.90;999.90;;;;;;;-2.11;100.00;95350.63;5064143;28;20248;-64
2023/01/30 06:22:42;;;;;;;1999.90;999.90;;;;;;;-2.11;100.00;95354.06;5064160;28;20178;-62
2023/01/30 06:25:08;;;;;;;1999.90;999.90;;;;;;;-2.07;100.00;95357.69;5064102;28;20170;-63
2023/01/30 06:27:33;;;;;;;1999.90;999.90;;;;;;;-2.06;100.00;95351.22;5064620;28;20181;-63
2023/01/30 06:29:59;;;;;;;1999.90;999.90;;;;;;;-2.00;100.00;95354.50;5064192;28;20170;-63
2023/01/30 06:32:24;;;;;;;1999.90;999.90;;;;;;;-2.02;100.00;95354.81;5063949;28;20241;-64
2023/01/30 06:34:49;;;;;;;1999.90;999.90;;;;;;;-2.00;100.00;95360.59;5064557;28;20220;-61
2023/01/30 06:37:15;;;;;;;1999.90;999.90;;;;;;;-2.05;100.00;95354.66;5063968;28;20269;-61
2023/01/30 06:39:40;;;;;;;1999.90;999.90;;;;;;;-2.07;100.00;95354.22;5063774;28;20194;-63
2023/01/30 06:42:06;;;;;;;1999.90;999.90;;;;;;;-2.09;100.00;95351.06;5064376;28;20239;-63
2023/01/30 06:44:31;;;;;;;1999.90;999.90;;;;;;;-2.11;100.00;95359.41;5063783;28;20177;-62
2023/01/30 06:46:56;;;;;;;1999.90;999.90;;;;;;;-2.14;100.00;95351.28;5064297;28;20202;-63
2023/01/30 06:49:22;;;;;;;1999.90;999.90;;;;;;;-2.10;100.00;95354.84;5063789;28;20188;-64
2023/01/30 06:51:47;;;;;;;1999.90;999.90;;;;;;;-2.09;100.00;95361.75;5063597;28;20182;-64
2023/01/30 06:54:13;;;;;;;1999.90;999.90;;;;;;;-2.02;100.00;95356.69;5063371;28;20197;-63
2023/01/30 06:56:38;;;;;;;1999.90;999.90;;;;;;;-1.95;100.00;95356.97;5063718;28;20284;-63
2023/01/30 06:59:04;;;;;;;1999.90;999.90;;;;;;;-1.88;100.00;95370.59;5063586;28;20194;-63
2023/01/30 07:01:30;;;;;;;1999.90;999.90;;;;;;;-1.74;100.00;95374.63;5063955;28;20204;-64
2023/01/30 07:03:55;;;;;;;1999.90;999.90;;;;;;;-1.66;100.00;95370.28;5063644;28;20181;-63
2023/01/30 07:06:20;;;;;;;1999.90;999.90;;;;;;;-1.56;100.00;95377.94;5063683;28;20194;-65
2023/01/30 07:08:46;;;;;;;1999.90;999.90;;;;;;;-1.42;100.00;95386.50;5064063;28;20176;-64
2023/01/30 07:11:11;;;;;;;1999.90;999.90;;;;;;;-0.94;100.00;95403.53;5063581;28;20178;-63
2023/01/30 07:13:37;;;;;;;1999.90;999.90;;;;;;;-0.56;100.00;95416.69;5063612;28;20200;-63
2023/01/30 07:16:02;;;;;;;1999.90;999.90;;;;;;;-0.49;100.00;95441.88;5063517;28;20196;-65
2023/01/30 07:18:27;;;;;;;1999.90;999.90;;;;;;;-0.38;100.00;95452.94;5063969;28;20211;-65
2023/01/30 07:20:53;;;;;;;1999.90;999.90;;;;;;;-0.22;100.00;95488.72;5063716;28;20214;-62
2023/01/30 07:23:19;;;;;;;1999.90;999.90;;;;;;;0.13;100.00;95508.69;5063314;28;20190;-63
2023/01/30 07:25:44;;;;;;;1999.90;999.90;;;;;;;0.40;100.00;95526.81;5063496;28;20173;-64
2023/01/30 07:28:10;;;;;;;1999.90;999.90;;;;;;;0.25;100.00;95540.91;5063395;28;20173;-63
2023/01/30 07:30:35;;;;;;;1999.90;999.90;;;;;;;0.27;100.00;95549.44;5063429;28;20181;-63
2023/01/30 07:33:03;;;;;;;1999.90;999.90;;;;;;;0.18;100.00;95564.06;5063042;28;20176;-62
2023/01/30 07:35:31;;;;;;;1999.90;999.90;;;;;;;0.03;100.00;95562.78;5063520;28;20174;-62
2023/01/30 07:37:57;;;;;;;1999.90;999.90;;;;;;;-0.03;100.00;95564.91;5063349;28;20205;-62
2023/01/30 07:40:22;;;;;;;1999.90;999.90;;;;;;;-0.01;100.00;95569.94;5063314;28;20229;-62
2023/01/30 07:43:17;;;;;;;1999.90;999.90;;;;;;;0.03;100.00;95581.56;5063266;28;20181;-62
2023/01/30 07:45:45;;;;;;;1999.90;999.90;;;;;;;0.16;100.00;95580.50;5058716;28;20188;-62
2023/01/30 07:48:13;;;;;;;1999.90;999.90;;;;;;;0.48;100.00;95576.97;5063846;28;20205;-62
2023/01/30 07:50:39;;;;;;;1999.90;999.90;;;;;;;0.59;100.00;95578.09;5063037;28;20176;-62
2023/01/30 07:53:05;;;;;;;1999.90;999.90;;;;;;;0.64;100.00;95583.25;5063546;28;20170;-63
2023/01/30 07:55:32;;;;;;;1999.90;999.90;;;;;;;0.82;100.00;95581.91;5063504;28;20197;-63
2023/01/30 07:57:57;;;;;;;1999.90;999.90;;;;;;;1.05;100.00;95574.94;5063012;28;20244;-63
2023/01/30 08:00:22;;;;;;;1999.90;999.90;;;;;;;0.97;100.00;95567.78;5063766;28;20178;-63
2023/01/30 08:02:48;;;;;;;1999.90;999.90;;;;;;;0.93;100.00;95572.28;5067419;28;20233;-63
2023/01/30 08:05:13;;;;;;;1999.90;999.90;;;;;;;1.02;100.00;95570.25;5066607;28;20180;-63
2023/01/30 08:07:39;;;;;;;1999.90;999.90;;;;;;;1.13;100.00;95575.94;5066472;28;20173;-63
2023/01/30 08:10:05;;;;;;;1999.90;999.90;;;;;;;1.18;100.00;95571.13;5066632;28;20181;-65
2023/01/30 08:12:30;;;;;;;1999.90;999.90;;;;;;;1.44;100.00;95571.50;5066224;28;20241;-63
2023/01/30 08:14:55;;;;;;;1999.90;999.90;;;;;;;1.52;100.00;95586.72;5067068;28;20274;-64
2023/01/30 08:17:21;;;;;;;1999.90;999.90;;;;;;;1.65;100.00;95590.16;5066270;28;20189;-64
2023/01/30 08:19:46;;;;;;;1999.90;999.90;;;;;;;1.65;100.00;95596.34;5066290;28;20260;-62
2023/01/30 08:22:13;;;;;;;1999.90;999.90;;;;;;;1.67;100.00;95602.16;5066581;28;20177;-63
2023/01/30 08:24:39;;;;;;;1999.90;999.90;;;;;;;1.82;100.00;95592.59;5066890;28;20174;-65
2023/01/30 08:27:04;;;;;;;1999.90;999.90;;;;;;;2.59;100.00;95586.56;5066392;28;20181;-64
2023/01/30 08:29:30;;;;;;;1999.90;999.90;;;;;;;3.92;100.00;95583.38;5066255;28;20166;-64
2023/01/30 08:31:56;;;;;;;1999.90;999.90;;;;;;;5.19;100.00;95579.06;5066871;28;20177;-65
2023/01/30 08:34:22;;;;;;;1999.90;999.90;;;;;;;5.31;100.00;95595.09;5066735;28;20237;-63
2023/01/30 08:36:47;;;;;;;1999.90;999.90;;;;;;;6.44;100.00;95588.06;5066656;28;20229;-64
2023/01/30 08:39:13;;;;;;;1999.90;999.90;;;;;;;5.75;100.00;95590.69;5066120;28;20245;-64
2023/01/30 08:41:41;;;;;;;1999.90;999.90;;;;;;;5.08;100.00;95578.91;5066137;28;20233;-65
2023/01/30 08:44:10;;;;;;;1999.90;999.90;;;;;;;4.10;100.00;95571.00;5066630;28;20195;-64
2023/01/30 08:46:36;;;;;;;1999.90;999.90;;;;;;;3.39;100.00;95576.91;5065966;28;20199;-66
2023/01/30 08:49:01;;;;;;;1999.90;999.90;;;;;;;4.70;100.00;95573.63;5066332;28;20240;-65
2023/01/30 08:51:27;;;;;;;1999.90;999.90;;;;;;;5.49;100.00;95567.13;5066295;28;20175;-67
2023/01/30 08:53:52;;;;;;;1999.90;999.90;;;;;;;6.64;100.00;95583.25;5065437;28;20172;-64
2023/01/30 08:56:17;;;;;;;1999.90;999.90;;;;;;;6.96;100.00;95575.38;5066538;28;20232;-65
2023/01/30 08:58:45;;;;;;;1999.90;999.90;;;;;;;7.61;100.00;95555.28;5065972;28;20211;-65
2023/01/30 09:01:11;;;;;;;1999.90;999.90;;;;;;;8.32;100.00;95557.19;5065691;28;20171;-64
2023/01/30 09:03:36;;;;;;;1999.90;999.90;;;;;;;7.54;100.00;95559.91;5066194;28;20166;-63
2023/01/30 09:06:01;;;;;;;1999.90;999.90;;;;;;;7.64;100.00;95554.53;5066169;28;20347;-62
2023/01/30 09:08:27;;;;;;;1999.90;999.90;;;;;;;7.66;100.00;95560.38;5065980;28;20426;-67
2023/01/30 09:11:00;;;;;;;1999.90;999.90;;;;;;;7.82;100.00;95536.38;5065352;28;20170;-65
2023/01/30 09:13:25;;;;;;;1999.90;999.90;;;;;;;7.29;100.00;95570.63;5066114;28;20172;-65
2023/01/30 09:15:51;;;;;;;1999.90;999.90;;;;;;;8.10;100.00;95571.84;5065563;28;20171;-63
2023/01/30 09:18:16;;;;;;;1999.90;999.90;;;;;;;8.24;100.00;95549.38;5065324;28;20199;-66
2023/01/30 09:20:42;;;;;;;1999.90;999.90;;;;;;;8.79;100.00;95543.28;5065327;28;20196;-64
2023/01/30 09:23:07;;;;;;;1999.90;999.90;;;;;;;7.83;100.00;95561.63;5065367;28;20179;-64
2023/01/30 09:25:33;;;;;;;1999.90;999.90;;;;;;;8.40;100.00;95553.31;5065671;28;20347;-65
2023/01/30 09:27:58;;;;;;;1999.90;999.90;;;;;;;8.26;100.00;95552.47;5065768;28;20203;-68
2023/01/30 09:30:24;;;;;;;1999.90;999.90;;;;;;;8.54;100.00;95542.47;5065836;28;20397;-66
2023/01/30 09:32:49;;;;;;;1999.90;999.90;;;;;;;8.70;100.00;95561.94;5065616;28;20176;-67
2023/01/30 09:35:15;;;;;;;1999.90;999.90;;;;;;;8.43;100.00;95571.59;5065146;28;20418;-64
2023/01/30 09:37:49;;;;;;;1999.90;999.90;;;;;;;8.20;100.00;95584.69;5065106;28;20199;-66
2023/01/30 09:40:22;;;;;;;1999.90;999.90;;;;;;;8.63;100.00;95567.34;5065595;28;20252;-63
2023/01/30 09:43:16;;;;;;;1999.90;999.90;;;;;;;8.19;100.00;95557.91;5065529;28;20370;-65
2023/01/30 09:46:05;;;;;;;1999.90;999.90;;;;;;;7.75;100.00;95549.91;5065111;28;20171;-64
2023/01/30 09:49:04;;;;;;;1999.90;999.90;;;;;;;7.84;100.00;95547.66;5065592;28;20170;-63
2023/01/30 09:51:38;;;;;;;1999.90;999.90;;;;;;;7.84;100.00;95553.09;5065535;28;20180;-64
2023/01/30 09:54:28;;;;;;;1999.90;999.90;;;;;;;6.96;100.00;95540.88;5065161;28;20223;-64
2023/01/30 09:57:07;;;;;;;1999.90;999.90;;;;;;;6.73;100.00;95529.44;5064824;28;20226;-63
2023/01/30 09:59:45;;;;;;;1999.90;999.90;;;;;;;7.12;100.00;95522.38;5064055;28;20170;-63
2023/01/30 10:02:35;;;;;;;1999.90;999.90;;;;;;;7.63;100.00;95520.38;5065423;28;20171;-65
2023/01/30 10:05:02;;;;;;;1999.90;999.90;;;;;;;7.10;100.00;95523.94;5065006;28;20185;-64
2023/01/30 10:07:45;;;;;;;1999.90;999.90;;;;;;;6.58;100.00;95525.03;5064514;28;20213;-65
2023/01/30 10:10:19;;;;;;;1999.90;999.90;;;;;;;6.07;100.00;95532.28;5064729;28;20482;-65
2023/01/30 10:13:13;;;;;;;1999.90;999.90;;;;;;;5.85;100.00;95530.47;5064684;28;20174;-63
2023/01/30 10:15:59;;;;;;;1999.90;999.90;;;;;;;5.60;100.00;95545.59;5064785;28;20503;-65
2023/01/30 10:18:49;;;;;;;1999.90;999.90;;;;;;;5.44;100.00;95547.72;5064815;28;20232;-62
2023/01/30 10:21:46;;;;;;;1999.90;999.90;;;;;;;5.68;100.00;95522.91;5064557;28;20172;-64
2023/01/30 10:24:30;;;;;;;1999.90;999.90;;;;;;;7.05;100.00;95506.03;5064219;28;20237;-65
2023/01/30 10:26:55;;;;;;;1999.90;999.90;;;;;;;7.94;100.00;95497.97;5064788;28;20184;-66
2023/01/30 10:29:27;;;;;;;1999.90;999.90;;;;;;;8.30;100.00;95501.59;5064859;28;20245;-66
2023/01/30 10:32:12;;;;;;;1999.90;999.90;;;;;;;8.36;100.00;95481.78;5064584;28;20193;-65
2023/01/30 10:34:41;;;;;;;1999.90;999.90;;;;;;;8.16;100.00;95477.81;5064602;28;20174;-67
2023/01/30 10:37:12;;;;;;;1999.90;999.90;;;;;;;8.27;100.00;95467.78;5063873;28;20236;-65
2023/01/30 10:39:52;;;;;;;1999.90;999.90;;;;;;;8.34;100.00;95454.19;5063669;28;20188;-68
2023/01/30 10:42:25;;;;;;;1999.90;999.90;;;;;;;8.26;100.00;95468.16;5064221;28;20182;-65
2023/01/30 10:44:53;;;;;;;1999.90;999.90;;;;;;;7.44;100.00;95463.59;5064159;28;20184;-66
2023/01/30 10:47:31;;;;;;;1999.90;999.90;;;;;;;7.37;100.00;95469.00;5064247;28;20246;-65
2023/01/30 10:50:29;;;;;;;1999.90;999.90;;;;;;;7.69;100.00;95475.38;5064414;28;20177;-64
2023/01/30 10:53:04;;;;;;;1999.90;999.90;;;;;;;8.19;100.00;95454.53;5063926;28;20182;-64
2023/01/30 10:55:47;;;;;;;1999.90;999.90;;;;;;;8.03;100.00;95452.16;5064499;28;20178;-67
2023/01/30 10:58:27;;;;;;;1999.90;999.90;;;;;;;8.19;100.00;95449.84;5063258;28;20536;-64
2023/01/30 11:01:05;;;;;;;1999.90;999.90;;;;;;;7.51;100.00;95450.06;5064193;28;20168;-64
2023/01/30 11:03:43;;;;;;;1999.90;999.90;;;;;;;7.38;100.00;95461.59;5064203;28;20165;-65
2023/01/30 11:06:22;;;;;;;1999.90;999.90;;;;;;;7.32;100.00;95468.59;5064194;28;20473;-67